Time;durP1;ratioP1;P1;durP2;ratioP2;P2;SDS_P1;SDS_P2;PMS_P1;PMS_P2;Temp;Humidity;BMP_temperature;BMP_pressure;BME280_temperature;BME280_humidity;BME280_pressure;Samples;Min_cycle;Max_cycle;Signal;HPM_P1;HPM_P2
2022/11/04 00:00:09;;;;;;;6.47;4.22;;;;;;;10.52;100.00;99665.25;2088288;28;20160;-80
2022/11/04 00:01:13;;;;;;;6.65;4.07;;;;;;;10.53;100.00;99652.75;2088420;28;20025;-79
2022/11/04 00:02:15;;;;;;;5.50;4.22;;;;;;;10.53;100.00;99656.28;2088184;28;31881;-80
2022/11/04 00:03:17;;;;;;;7.68;4.20;;;;;;;10.54;100.00;99649.16;2087866;28;35652;-79
2022/11/04 00:04:21;;;;;;;6.68;4.20;;;;;;;10.54;100.00;99655.34;2087849;28;31268;-79
2022/11/04 00:05:23;;;;;;;5.13;4.15;;;;;;;10.54;100.00;99650.00;2087588;28;38056;-79
2022/11/04 00:06:25;;;;;;;7.32;4.65;;;;;;;10.54;100.00;99647.31;2088167;28;28804;-78
2022/11/04 00:08:53;;;;;;;5.15;4.03;;;;;;;10.53;100.00;99656.28;2088966;28;20045;-79
2022/11/04 00:09:57;;;;;;;6.25;4.78;;;;;;;10.55;100.00;99638.38;2086732;28;34567;-79
2022/11/04 00:12:26;;;;;;;5.32;4.05;;;;;;;10.54;100.00;99643.78;2087955;28;32444;-80
2022/11/04 00:13:29;;;;;;;6.95;4.38;;;;;;;10.52;100.00;99649.22;2087799;28;38435;-79
2022/11/04 00:14:32;;;;;;;5.13;4.10;;;;;;;10.51;100.00;99647.44;2088032;28;28982;-79
2022/11/04 00:18:18;;;;;;;7.82;4.90;;;;;;;10.48;100.00;99647.56;2087699;28;38123;-79
2022/11/04 00:19:20;;;;;;;8.73;5.10;;;;;;;10.48;100.00;99650.25;2087200;28;41483;-78
2022/11/04 00:28:43;;;;;;;6.85;4.88;;;;;;;10.39;100.00;99638.16;2086574;28;40306;-80
2022/11/04 00:29:45;;;;;;;7.07;5.00;;;;;;;10.42;100.00;99640.69;2087709;28;37418;-81
2022/11/04 00:30:47;;;;;;;8.07;5.38;;;;;;;10.44;100.00;99638.81;2088245;28;21393;-80
2022/11/04 00:33:25;;;;;;;7.97;5.45;;;;;;;10.45;100.00;99632.53;2078176;28;38154;-81
2022/11/04 00:34:29;;;;;;;7.47;5.28;;;;;;;10.48;100.00;99636.88;2087649;28;35881;-80
2022/11/04 00:35:31;;;;;;;7.90;5.18;;;;;;;10.49;100.00;99639.47;2087372;28;39308;-78
2022/11/04 00:36:33;;;;;;;7.65;5.45;;;;;;;10.50;100.00;99638.56;2087349;28;32084;-78
2022/11/04 00:37:37;;;;;;;6.78;6.07;;;;;;;10.52;100.00;99641.19;2087221;28;35005;-78
2022/11/04 00:38:39;;;;;;;9.57;6.53;;;;;;;10.53;100.00;99645.56;2087406;28;32078;-78
2022/11/04 00:39:41;;;;;;;7.13;5.80;;;;;;;10.54;100.00;99644.66;2087751;28;33776;-79
2022/11/04 00:40:43;;;;;;;9.18;5.90;;;;;;;10.55;100.00;99651.75;2087593;28;33263;-79
2022/11/04 00:41:45;;;;;;;7.28;6.00;;;;;;;10.56;100.00;99656.16;2086940;28;31295;-79
2022/11/04 00:42:46;;;;;;;7.78;5.63;;;;;;;10.56;100.00;99657.97;2086648;28;39755;-79
2022/11/04 00:43:48;;;;;;;7.63;5.75;;;;;;;10.56;100.00;99661.50;2086527;28;36251;-79
2022/11/04 00:44:50;;;;;;;8.70;6.05;;;;;;;10.56;100.00;99661.50;2086715;28;29729;-79
2022/11/04 00:45:51;;;;;;;6.32;5.43;;;;;;;10.57;100.00;99652.56;2087734;28;34644;-79
2022/11/04 00:46:53;;;;;;;8.38;6.03;;;;;;;10.59;100.00;99649.81;2089675;28;20147;-78
2022/11/04 00:47:55;;;;;;;8.00;6.30;;;;;;;10.60;100.00;99644.38;2088821;28;34828;-78
2022/11/04 00:48:57;;;;;;;8.10;5.88;;;;;;;10.60;100.00;99652.41;2088436;28;30149;-79
2022/11/04 00:49:58;;;;;;;9.13;5.80;;;;;;;10.62;100.00;99647.88;2079911;28;35717;-79
2022/11/04 00:51:01;;;;;;;8.02;5.70;;;;;;;10.61;100.00;99638.09;2088230;28;34688;-79
2022/11/04 00:52:03;;;;;;;8.43;5.57;;;;;;;10.61;100.00;99643.44;2089262;28;29678;-78
2022/11/04 00:53:05;;;;;;;8.60;5.47;;;;;;;10.61;100.00;99640.75;2088886;28;38001;-78
2022/11/04 00:54:07;;;;;;;9.80;5.88;;;;;;;10.62;100.00;99638.94;2088939;28;33008;-78
2022/11/04 00:55:09;;;;;;;8.52;5.43;;;;;;;10.63;100.00;99643.38;2088984;28;28850;-79
2022/11/04 00:56:10;;;;;;;10.52;5.78;;;;;;;10.63;100.00;99652.28;2088702;28;39417;-79
2022/11/04 00:57:13;;;;;;;6.65;5.38;;;;;;;10.62;100.00;99638.94;2088921;28;36414;-78
2022/11/04 00:58:15;;;;;;;7.78;5.53;;;;;;;10.61;100.00;99650.63;2089316;28;29693;-79
2022/11/04 00:59:17;;;;;;;10.48;5.85;;;;;;;10.62;100.00;99650.56;2089922;28;20041;-79
2022/11/04 01:00:21;;;;;;;8.00;5.32;;;;;;;10.61;100.00;99643.44;2090165;28;20041;-79
2022/11/04 01:01:22;;;;;;;10.25;6.53;;;;;;;10.61;100.00;99643.44;2089535;28;33128;-79
2022/11/04 01:02:25;;;;;;;10.18;5.60;;;;;;;10.62;100.00;99642.53;2088817;28;36717;-79
2022/11/04 01:03:26;;;;;;;6.25;5.30;;;;;;;10.63;100.00;99638.88;2089616;28;20041;-79
2022/11/04 01:04:29;;;;;;;8.43;6.15;;;;;;;10.65;100.00;99649.53;2088912;28;40624;-79
2022/11/04 01:05:32;;;;;;;7.82;6.10;;;;;;;10.63;100.00;99646.91;2089341;28;26409;-79
2022/11/04 01:06:34;;;;;;;8.27;5.90;;;;;;;10.64;100.00;99643.31;2088840;28;31344;-79
2022/11/04 01:07:36;;;;;;;9.57;6.53;;;;;;;10.65;100.00;99650.41;2089129;28;38622;-78
2022/11/04 01:08:44;;;;;;;7.95;5.97;;;;;;;10.64;100.00;99640.63;2089789;28;36848;-78
2022/11/04 01:09:48;;;;;;;6.75;5.90;;;;;;;10.67;100.00;99644.97;2089387;28;31288;-78
2022/11/04 01:10:51;;;;;;;7.53;5.97;;;;;;;10.67;100.00;99653.88;2089890;28;20033;-78
2022/11/04 01:11:54;;;;;;;8.02;5.72;;;;;;;10.65;100.00;99645.03;2089528;28;20830;-78
2022/11/04 01:12:56;;;;;;;6.60;5.70;;;;;;;10.67;100.00;99653.00;2088965;28;37293;-79
2022/11/04 01:13:57;;;;;;;8.32;6.22;;;;;;;10.67;100.00;99653.88;2089348;28;28246;-78
2022/11/04 01:14:59;;;;;;;7.40;5.53;;;;;;;10.65;100.00;99650.41;2089390;28;31394;-78
2022/11/04 01:16:04;;;;;;;8.10;6.15;;;;;;;10.67;100.00;99647.66;2089533;28;31486;-79
2022/11/04 01:17:06;;;;;;;8.05;5.97;;;;;;;10.67;100.00;99648.50;2088898;28;29239;-78
2022/11/04 01:18:08;;;;;;;8.00;6.38;;;;;;;10.68;100.00;99650.28;2089245;28;31402;-78
2022/11/04 01:19:11;;;;;;;7.43;5.95;;;;;;;10.70;100.00;99652.88;2088845;28;33215;-78
2022/11/04 01:20:13;;;;;;;8.35;6.00;;;;;;;10.70;100.00;99640.34;2089516;28;20041;-78
2022/11/04 01:21:16;;;;;;;6.63;5.80;;;;;;;10.72;100.00;99642.09;2088778;28;41175;-79
2022/11/04 01:22:17;;;;;;;8.65;6.47;;;;;;;10.73;100.00;99636.69;2089241;28;30265;-80
2022/11/04 01:23:19;;;;;;;8.27;6.10;;;;;;;10.74;100.00;99632.19;2089753;28;20771;-80
2022/11/04 01:24:21;;;;;;;9.23;6.25;;;;;;;10.76;100.00;99633.84;2089649;28;31829;-80
2022/11/04 01:25:23;;;;;;;8.55;6.57;;;;;;;10.75;100.00;99628.56;2089163;28;34727;-80
2022/11/04 01:26:27;;;;;;;8.43;6.75;;;;;;;10.75;100.00;99610.72;2089505;28;20044;-80
2022/11/04 01:27:28;;;;;;;8.90;6.22;;;;;;;10.76;100.00;99622.28;2088599;28;37194;-80
2022/11/04 01:28:30;;;;;;;8.32;6.55;;;;;;;10.77;100.00;99626.72;2088663;28;32113;-80
2022/11/04 01:29:32;;;;;;;9.48;6.80;;;;;;;10.77;100.00;99624.03;2089230;28;20929;-80
2022/11/04 01:30:36;;;;;;;10.90;7.07;;;;;;;10.77;100.00;99627.56;2089402;28;34239;-80
2022/11/04 01:31:38;;;;;;;9.20;7.00;;;;;;;10.77;100.00;99630.25;2088978;28;34706;-80
2022/11/04 01:32:40;;;;;;;9.18;7.47;;;;;;;10.78;100.00;99631.97;2088122;28;25848;-79
2022/11/04 01:33:41;;;;;;;9.07;7.30;;;;;;;10.79;100.00;99630.19;2088537;28;35279;-79
2022/11/04 01:34:45;;;;;;;7.82;7.05;;;;;;;10.78;100.00;99628.44;2088850;28;28429;-80
2022/11/04 01:35:49;;;;;;;8.93;7.60;;;;;;;10.78;100.00;99631.97;2089671;28;20030;-79
2022/11/04 01:36:51;;;;;;;10.43;8.00;;;;;;;10.77;100.00;99627.56;2089611;28;34616;-79
2022/11/04 01:37:54;;;;;;;9.30;8.20;;;;;;;10.75;100.00;99626.78;2090215;28;34049;-80
2022/11/04 01:38:56;;;;;;;8.90;8.00;;;;;;;10.73;100.00;99625.97;2090386;28;37041;-79
2022/11/04 01:39:58;;;;;;;13.68;8.57;;;;;;;10.72;100.00;99634.94;2089603;28;30198;-80
2022/11/04 01:41:00;;;;;;;11.15;9.00;;;;;;;10.69;100.00;99624.34;2097258;28;33323;-79
2022/11/04 01:42:04;;;;;;;12.23;9.30;;;;;;;10.68;100.00;99634.22;2096619;28;20041;-78
2022/11/04 01:43:18;;;;;;;11.00;9.77;;;;;;;10.64;100.00;99632.63;2094080;28;28267;-79
2022/11/04 01:44:46;;;;;;;10.63;9.27;;;;;;;10.63;100.00;99630.00;2096362;28;41508;-78
2022/11/04 01:46:00;;;;;;;10.88;9.77;;;;;;;10.60;100.00;99638.16;2097417;28;20042;-78
2022/11/04 01:47:03;;;;;;;10.43;9.43;;;;;;;10.59;100.00;99639.97;2094625;28;39322;-78
2022/11/04 01:48:30;;;;;;;11.32;9.98;;;;;;;10.58;100.00;99638.22;2090613;28;20874;-78
2022/11/04 01:49:38;;;;;;;12.90;10.50;;;;;;;10.55;100.00;99638.38;2083503;28;35441;-78
2022/11/04 01:50:42;;;;;;;11.98;10.25;;;;;;;10.55;100.00;99633.03;2084924;28;20158;-78
2022/11/04 01:51:48;;;;;;;12.02;10.80;;;;;;;10.54;100.00;99641.13;2087796;28;34944;-78
2022/11/04 01:53:09;;;;;;;14.63;11.52;;;;;;;10.53;100.00;99640.22;2088834;28;31553;-78
2022/11/04 01:54:12;;;;;;;12.40;11.10;;;;;;;10.52;100.00;99635.81;2088782;28;32571;-78
2022/11/04 01:55:22;;;;;;;13.65;11.32;;;;;;;10.51;100.00;99642.09;2089187;28;31836;-77
2022/11/04 01:56:26;;;;;;;12.57;10.90;;;;;;;10.50;100.00;99638.56;2087813;28;35791;-78
2022/11/04 01:57:38;;;;;;;11.95;9.75;;;;;;;10.49;100.00;99635.94;2080900;28;35700;-78
2022/11/04 01:58:51;;;;;;;11.73;9.77;;;;;;;10.48;100.00;99627.06;2082248;28;20087;-78
2022/11/04 01:59:52;;;;;;;10.30;9.18;;;;;;;10.47;100.00;99624.44;2088039;28;32476;-78
2022/11/04 02:00:57;;;;;;;11.65;9.95;;;;;;;10.46;100.00;99622.69;2089385;28;20053;-78
2022/11/04 02:01:59;;;;;;;11.85;9.90;;;;;;;10.44;100.00;99624.56;2088313;28;31337;-78
2022/11/04 02:03:19;;;;;;;9.50;8.60;;;;;;;10.43;100.00;99626.38;2088676;28;34084;-78
2022/11/04 02:04:24;;;;;;;9.13;8.25;;;;;;;10.41;100.00;99632.72;2088793;28;20391;-79
2022/11/04 02:05:29;;;;;;;9.35;8.27;;;;;;;10.40;100.00;99645.25;2087833;28;39784;-78
2022/11/04 02:06:31;;;;;;;7.88;7.07;;;;;;;10.40;100.00;99655.94;2087832;28;31072;-78
2022/11/04 02:07:32;;;;;;;7.53;6.68;;;;;;;10.38;100.00;99641.75;2072629;28;22845;-79
2022/11/04 02:08:34;;;;;;;7.57;6.18;;;;;;;10.35;100.00;99636.53;2078897;28;39008;-79
2022/11/04 02:09:39;;;;;;;7.05;5.72;;;;;;;10.32;100.00;99636.69;2089058;28;30938;-79
2022/11/04 02:10:49;;;;;;;5.60;4.65;;;;;;;10.28;100.00;99630.56;2087773;28;33369;-79
2022/11/04 02:13:12;;;;;;;;;;;;;;;10.24;100.00;99633.44;2088743;28;30572;-78
2022/11/04 02:14:13;;;;;;;4.30;3.88;;;;;;;10.20;100.00;99640.72;2088350;28;42392;-79
2022/11/04 02:15:26;;;;;;;3.30;3.05;;;;;;;10.18;100.00;99647.06;2088503;28;34325;-79
2022/11/04 02:16:39;;;;;;;3.22;2.60;;;;;;;10.16;100.00;99640.91;2088226;28;32695;-79
2022/11/04 02:17:48;;;;;;;3.05;2.40;;;;;;;10.12;100.00;99645.50;2089260;28;20042;-79
2022/11/04 02:19:40;;;;;;;2.50;1.90;;;;;;;10.10;100.00;99648.28;2087889;28;40807;-79
2022/11/04 02:21:04;;;;;;;2.95;1.55;;;;;;;10.09;100.00;99642.97;2088295;28;39309;-79
2022/11/04 02:22:48;;;;;;;1.88;1.20;;;;;;;10.09;100.00;99640.31;2088922;28;22695;-79
2022/11/04 02:24:14;;;;;;;2.08;1.20;;;;;;;10.08;100.00;99654.59;2088548;28;30264;-79
2022/11/04 02:25:54;;;;;;;1.70;0.73;;;;;;;10.08;100.00;99659.94;2087587;28;41262;-79
2022/11/04 02:27:19;;;;;;;0.95;0.60;;;;;;;10.04;100.00;99663.69;2064878;28;30179;-77
2022/11/04 02:28:40;;;;;;;2.10;0.50;;;;;;;10.02;100.00;99665.56;2088877;28;31619;-80
2022/11/04 02:29:53;;;;;;;1.67;0.68;;;;;;;10.01;100.00;99666.47;2089260;28;20037;-80
2022/11/04 02:31:21;;;;;;;1.35;0.47;;;;;;;10.00;100.00;99664.75;2088028;28;31796;-79
2022/11/04 02:33:26;;;;;;;0.85;0.30;;;;;;;9.99;100.00;99673.69;2084086;28;20057;-80
2022/11/04 02:34:54;;;;;;;0.95;0.30;;;;;;;9.96;100.00;99687.19;2058172;28;26921;-79
2022/11/04 02:36:39;;;;;;;0.93;0.30;;;;;;;9.95;100.00;99691.69;2087861;28;27761;-80
2022/11/04 02:38:36;;;;;;;1.70;0.40;;;;;;;9.92;100.00;99703.38;2088571;28;33001;-81
2022/11/04 02:40:08;;;;;;;0.82;0.22;;;;;;;9.89;100.00;99718.66;2075027;28;33016;-81
2022/11/04 02:41:36;;;;;;;0.70;0.20;;;;;;;9.88;100.00;99727.59;2076240;28;31634;-81
2022/11/04 02:42:46;;;;;;;1.10;0.20;;;;;;;9.90;100.00;99715.91;2080052;28;23830;-80
2022/11/04 02:43:55;;;;;;;0.80;0.20;;;;;;;9.89;100.00;99719.53;2075934;28;20038;-80
2022/11/04 02:45:21;;;;;;;0.80;0.20;;;;;;;9.88;100.00;99712.44;2080286;28;30092;-81
2022/11/04 02:47:01;;;;;;;1.48;0.20;;;;;;;9.88;100.00;99725.78;2080610;28;20860;-80
2022/11/04 02:48:38;;;;;;;0.68;0.20;;;;;;;9.88;100.00;99717.78;2079839;28;38243;-80
2022/11/04 02:49:57;;;;;;;0.82;0.20;;;;;;;9.88;100.00;99727.59;2080252;28;33202;-81
2022/11/04 02:51:08;;;;;;;0.60;0.13;;;;;;;9.87;100.00;99737.44;2083069;28;37670;-80
2022/11/04 02:52:17;;;;;;;0.45;0.15;;;;;;;9.87;100.00;99742.78;2087343;28;30771;-80
2022/11/04 02:53:43;;;;;;;1.05;0.20;;;;;;;9.82;100.00;99743.91;2088086;28;35869;-80
2022/11/04 02:54:58;;;;;;;0.75;0.20;;;;;;;9.82;100.00;99744.75;2088314;28;32719;-80
2022/11/04 02:56:03;;;;;;;1.73;0.20;;;;;;;9.80;100.00;99746.63;2088021;28;40183;-80
2022/11/04 02:57:12;;;;;;;0.52;0.20;;;;;;;9.77;100.00;99741.41;2087592;28;31394;-81
2022/11/04 02:58:26;;;;;;;1.15;0.30;;;;;;;9.77;100.00;99738.72;2087736;28;36493;-80
2022/11/04 02:59:46;;;;;;;0.77;0.20;;;;;;;9.75;100.00;99744.13;2088064;28;20964;-80
2022/11/04 03:00:53;;;;;;;1.05;0.30;;;;;;;9.75;100.00;99741.44;2086880;28;40170;-81
2022/11/04 03:02:00;;;;;;;1.25;0.40;;;;;;;9.72;100.00;99732.69;2089006;28;34954;-80
2022/11/04 03:03:13;;;;;;;0.80;0.20;;;;;;;9.70;100.00;99735.41;2087682;28;31816;-81
2022/11/04 03:04:25;;;;;;;0.98;0.30;;;;;;;9.68;100.00;99728.41;2087912;28;40747;-80
2022/11/04 03:05:37;;;;;;;1.48;0.50;;;;;;;9.68;100.00;99728.41;2083778;28;32954;-80
2022/11/04 03:06:46;;;;;;;0.90;0.30;;;;;;;9.68;100.00;99737.28;2087476;28;30831;-81
2022/11/04 03:07:51;;;;;;;1.55;0.40;;;;;;;9.69;100.00;99728.34;2078901;28;32576;-80
2022/11/04 03:08:54;;;;;;;0.88;0.30;;;;;;;9.68;100.00;99733.75;2079597;28;29431;-81
2022/11/04 03:10:10;;;;;;;2.17;0.38;;;;;;;9.69;100.00;99730.13;2079487;28;37872;-80
2022/11/04 03:11:20;;;;;;;1.33;0.30;;;;;;;9.68;100.00;99742.63;2081132;28;29877;-81
2022/11/04 03:12:28;;;;;;;1.90;0.30;;;;;;;9.68;100.00;99733.75;2082488;28;34207;-81
2022/11/04 03:13:59;;;;;;;1.20;0.40;;;;;;;9.66;100.00;99738.28;2081287;28;41403;-81
2022/11/04 03:15:08;;;;;;;1.70;0.60;;;;;;;9.65;100.00;99749.88;2087776;28;20037;-81
2022/11/04 03:16:16;;;;;;;2.78;0.55;;;;;;;9.64;100.00;99745.50;2083727;28;36456;-81
2022/11/04 03:17:35;;;;;;;3.35;0.98;;;;;;;9.64;100.00;99737.47;2088351;28;32453;-81
2022/11/04 03:19:05;;;;;;;1.20;0.60;;;;;;;9.62;100.00;99752.66;2087826;28;35808;-80
2022/11/04 03:20:17;;;;;;;1.45;0.63;;;;;;;9.59;100.00;99747.47;2087697;28;42681;-81
2022/11/04 03:21:22;;;;;;;1.88;0.70;;;;;;;9.60;100.00;99751.84;2088157;28;20037;-81
2022/11/04 03:22:34;;;;;;;1.58;0.63;;;;;;;9.59;100.00;99747.47;2080897;28;36448;-81
2022/11/04 03:23:36;;;;;;;1.02;0.80;;;;;;;9.58;100.00;99754.59;2088664;28;20049;-81
2022/11/04 03:24:40;;;;;;;1.00;0.68;;;;;;;9.58;100.00;99746.56;2088051;28;40316;-81
2022/11/04 03:25:50;;;;;;;1.63;0.70;;;;;;;9.57;100.00;99743.97;2087400;28;33279;-80
2022/11/04 03:27:06;;;;;;;1.63;0.80;;;;;;;9.54;100.00;99744.94;2080771;28;35036;-81
2022/11/04 03:28:57;;;;;;;1.70;0.93;;;;;;;9.52;100.00;99761.03;2082114;28;32560;-81
2022/11/04 03:30:05;;;;;;;1.30;0.98;;;;;;;9.49;100.00;99762.94;2087423;28;34615;-81
2022/11/04 03:31:18;;;;;;;2.85;0.98;;;;;;;9.45;100.00;99772.88;2086850;28;35209;-81
2022/11/04 03:33:03;;;;;;;1.25;0.80;;;;;;;9.43;100.00;99773.88;2087644;28;37519;-81
2022/11/04 03:34:04;;;;;;;1.60;1.23;;;;;;;9.39;100.00;99782.94;2078027;28;34930;-81
2022/11/04 03:35:07;;;;;;;1.63;0.93;;;;;;;9.38;100.00;99787.41;2087902;28;20177;-81
2022/11/04 03:36:09;;;;;;;1.75;1.17;;;;;;;9.37;100.00;99783.00;2086889;28;34461;-81
2022/11/04 03:37:11;;;;;;;2.33;1.10;;;;;;;9.39;100.00;99786.47;2086847;28;37397;-81
2022/11/04 03:38:13;;;;;;;2.00;1.40;;;;;;;9.40;100.00;99788.22;2087203;28;34060;-81
2022/11/04 03:39:14;;;;;;;2.35;1.55;;;;;;;9.40;100.00;99784.66;2086652;28;33841;-81
2022/11/04 03:40:19;;;;;;;1.83;1.50;;;;;;;9.42;100.00;99793.50;2088505;28;20045;-81
2022/11/04 03:41:43;;;;;;;3.38;1.52;;;;;;;9.44;100.00;99789.84;2087342;28;33626;-80
2022/11/04 03:42:58;;;;;;;2.38;1.52;;;;;;;9.43;100.00;99793.44;2088401;28;20041;-81
2022/11/04 03:44:00;;;;;;;2.03;1.42;;;;;;;9.44;100.00;99792.53;2086952;28;33524;-80
2022/11/04 03:45:02;;;;;;;3.42;1.85;;;;;;;9.41;100.00;99784.63;2080622;28;34438;-81
2022/11/04 03:46:04;;;;;;;2.90;1.60;;;;;;;9.43;100.00;99792.56;2080126;28;20062;-81
2022/11/04 03:47:06;;;;;;;2.75;1.75;;;;;;;9.43;100.00;99796.13;2087033;28;34504;-81
2022/11/04 03:48:08;;;;;;;1.83;1.70;;;;;;;9.42;100.00;99788.16;2087928;28;33785;-80
2022/11/04 03:49:12;;;;;;;3.13;1.83;;;;;;;9.44;100.00;99792.53;2087004;28;36691;-80
2022/11/04 03:50:28;;;;;;;1.85;1.75;;;;;;;9.47;100.00;99788.84;2079749;28;36391;-80
2022/11/04 03:51:30;;;;;;;2.00;1.77;;;;;;;9.50;100.00;99802.97;2087524;28;29695;-80
2022/11/04 03:52:34;;;;;;;3.22;1.75;;;;;;;9.52;100.00;99795.78;2088023;28;34415;-80
2022/11/04 03:53:36;;;;;;;2.22;1.73;;;;;;;9.55;100.00;99803.69;2087604;28;24010;-80
2022/11/04 03:54:38;;;;;;;1.92;1.70;;;;;;;9.57;100.00;99808.97;2079732;28;32067;-81
2022/11/04 03:58:57;;;;;;;2.17;1.98;;;;;;;9.60;100.00;99808.88;2079165;28;20046;-72
2022/11/04 04:00:32;;;;;;;3.42;2.35;;;;;;;9.56;100.00;99812.56;2078107;28;25105;-73
2022/11/04 04:01:51;;;;;;;2.60;2.40;;;;;;;9.58;100.00;99816.03;2077142;28;30457;-73
2022/11/04 04:02:59;;;;;;;2.58;2.35;;;;;;;9.57;100.00;99822.34;2078785;28;35579;-73
2022/11/04 04:04:27;;;;;;;3.92;2.90;;;;;;;9.57;100.00;99830.34;2080156;28;20859;-73
2022/11/04 04:05:45;;;;;;;3.72;2.80;;;;;;;9.58;100.00;99837.41;2073699;28;37913;-73
2022/11/04 04:06:53;;;;;;;3.72;3.03;;;;;;;9.59;100.00;99836.50;2071309;28;20045;-73
2022/11/04 04:08:10;;;;;;;4.20;3.03;;;;;;;9.56;100.00;99828.59;2072393;28;32665;-73
2022/11/04 04:09:38;;;;;;;3.45;2.95;;;;;;;9.55;100.00;99826.88;2079911;28;37242;-73
2022/11/04 04:11:25;;;;;;;3.47;3.00;;;;;;;9.52;100.00;99835.84;2078666;28;39620;-73
2022/11/04 04:12:35;;;;;;;3.85;3.20;;;;;;;9.54;100.00;99842.00;2079260;28;33547;-73
2022/11/04 04:14:07;;;;;;;4.55;3.30;;;;;;;9.51;100.00;99836.78;2074970;28;33405;-73
2022/11/04 04:15:25;;;;;;;4.90;3.38;;;;;;;9.52;100.00;99838.53;2071284;28;20047;-73
2022/11/04 04:16:34;;;;;;;4.50;3.53;;;;;;;9.52;100.00;99837.66;2067672;28;38758;-73
2022/11/04 04:17:49;;;;;;;3.58;3.03;;;;;;;9.53;100.00;99839.41;2064585;28;33617;-73
2022/11/04 04:19:03;;;;;;;4.15;3.30;;;;;;;9.55;100.00;99832.22;2073386;28;31478;-73
2022/11/04 04:20:17;;;;;;;4.38;3.50;;;;;;;9.53;100.00;99840.28;2077946;28;40866;-73
2022/11/04 04:21:27;;;;;;;3.97;3.60;;;;;;;9.53;100.00;99837.59;2080393;28;20046;-72
2022/11/04 04:27:31;;;;;;;5.80;3.35;;;;;;;9.54;100.00;99860.72;2081233;28;20048;-72
2022/11/04 04:28:34;;;;;;;5.40;2.35;;;;;;;9.59;100.00;99859.69;2090001;28;33131;-73
2022/11/04 04:29:37;;;;;;;2.75;2.55;;;;;;;9.57;100.00;99865.09;2089358;28;32207;-72
2022/11/04 04:30:42;;;;;;;3.85;2.13;;;;;;;9.57;100.00;99861.56;2088188;28;36642;-73
2022/11/04 04:31:50;;;;;;;4.68;2.15;;;;;;;9.58;100.00;99857.94;2088300;28;38395;-74
2022/11/04 04:33:00;;;;;;;3.63;1.80;;;;;;;9.58;100.00;99863.28;2088397;28;34678;-73
2022/11/04 04:34:02;;;;;;;4.05;1.90;;;;;;;9.57;100.00;99856.22;2085700;28;39743;-73
2022/11/04 04:36:30;;;;;;;2.97;1.95;;;;;;;9.54;100.00;99866.06;2088489;28;38216;-72
2022/11/04 04:37:33;;;;;;;2.78;1.60;;;;;;;9.53;100.00;99860.78;2085341;28;35129;-72
2022/11/04 04:45:51;;;;;;;1.63;1.00;;;;;;;9.35;100.00;99889.03;2079064;28;40502;-72
2022/11/04 04:46:57;;;;;;;2.65;1.73;;;;;;;9.35;100.00;99886.38;2076480;28;32357;-72
2022/11/04 04:47:59;;;;;;;3.17;1.35;;;;;;;9.32;100.00;99878.44;2072820;28;32209;-72
2022/11/04 04:49:07;;;;;;;2.13;1.40;;;;;;;9.30;100.00;99883.84;2081689;28;20974;-72
2022/11/04 04:50:12;;;;;;;3.08;1.00;;;;;;;9.27;100.00;99889.28;2087473;28;33683;-72
2022/11/04 04:51:14;;;;;;;3.22;1.00;;;;;;;9.28;100.00;99898.19;2072204;28;30353;-70
2022/11/04 04:52:16;;;;;;;2.60;1.15;;;;;;;9.26;100.00;99889.31;2072471;28;36924;-70
2022/11/04 04:53:17;;;;;;;1.70;1.20;;;;;;;9.24;100.00;99901.88;2072699;28;20038;-72
2022/11/04 04:54:19;;;;;;;2.05;0.93;;;;;;;9.22;100.00;99909.94;2080243;28;32195;-72
2022/11/04 04:55:21;;;;;;;2.67;0.82;;;;;;;9.21;100.00;99907.34;2081130;28;31400;-72
2022/11/04 04:56:24;;;;;;;1.48;0.57;;;;;;;9.20;100.00;99917.13;2081343;28;20082;-73
2022/11/04 04:57:26;;;;;;;1.10;0.80;;;;;;;9.21;100.00;99910.00;2080722;28;30726;-72
2022/11/04 04:58:27;;;;;;;1.35;0.50;;;;;;;9.21;100.00;99912.69;2081033;28;28855;-73
2022/11/04 04:59:29;;;;;;;4.18;0.60;;;;;;;9.20;100.00;99911.78;2080840;28;29656;-73
2022/11/04 05:00:32;;;;;;;1.55;0.70;;;;;;;9.22;100.00;99911.75;2082750;28;38712;-73
2022/11/04 05:01:36;;;;;;;1.55;0.60;;;;;;;9.24;100.00;99907.22;2080824;28;20115;-73
2022/11/04 05:02:37;;;;;;;1.95;0.60;;;;;;;9.24;100.00;99913.44;2080342;28;28521;-73
2022/11/04 05:03:39;;;;;;;0.70;0.40;;;;;;;9.25;100.00;99912.50;2080853;28;40328;-73
2022/11/04 05:04:45;;;;;;;2.00;0.65;;;;;;;9.26;100.00;99916.94;2081002;28;29171;-72
2022/11/04 05:05:47;;;;;;;2.70;0.80;;;;;;;9.25;100.00;99909.84;2080758;28;35028;-73
2022/11/04 05:06:49;;;;;;;2.33;0.75;;;;;;;9.26;100.00;99906.25;2080646;28;34045;-73
2022/11/04 05:07:50;;;;;;;1.45;0.70;;;;;;;9.28;100.00;99915.06;2079734;28;34558;-72
2022/11/04 05:08:52;;;;;;;1.10;0.68;;;;;;;9.30;100.00;99920.38;2087404;28;38202;-73
2022/11/04 05:09:54;;;;;;;1.48;0.70;;;;;;;9.27;100.00;99926.66;2088765;28;20107;-73
2022/11/04 05:10:58;;;;;;;1.95;0.98;;;;;;;9.27;100.00;99913.31;2079397;28;40589;-73
2022/11/04 05:11:59;;;;;;;3.10;0.98;;;;;;;9.27;100.00;99917.78;2080976;28;25812;-72
2022/11/04 05:14:22;;;;;;;2.95;1.20;;;;;;;9.26;100.00;99918.72;2080930;28;39360;-73
2022/11/04 05:15:25;;;;;;;1.58;1.20;;;;;;;9.25;100.00;99919.66;2079983;28;35473;-73
2022/11/04 05:16:27;;;;;;;2.28;1.35;;;;;;;9.25;100.00;99919.66;2080565;28;20128;-73
2022/11/04 05:17:28;;;;;;;2.45;1.17;;;;;;;9.27;100.00;99923.13;2080237;28;35804;-72
2022/11/04 05:18:30;;;;;;;1.77;1.60;;;;;;;9.27;100.00;99925.81;2079846;28;35071;-73
2022/11/04 05:19:32;;;;;;;2.78;1.90;;;;;;;9.26;100.00;99921.38;2079476;28;36042;-72
2022/11/04 05:20:37;;;;;;;3.55;1.55;;;;;;;9.28;100.00;99919.56;2080643;28;37407;-73
2022/11/04 05:21:41;;;;;;;2.67;2.25;;;;;;;9.26;100.00;99916.94;2087856;28;38693;-73
2022/11/04 05:22:42;;;;;;;3.70;2.40;;;;;;;9.28;100.00;99916.88;2086796;28;30350;-73
2022/11/04 05:23:44;;;;;;;3.10;2.70;;;;;;;9.28;100.00;99915.06;2080026;28;40317;-73
2022/11/04 05:24:47;;;;;;;4.53;2.90;;;;;;;9.28;100.00;99919.56;2079591;28;38111;-73
2022/11/04 05:25:48;;;;;;;2.92;2.53;;;;;;;9.28;100.00;99914.22;2080633;28;31127;-73
2022/11/04 05:26:50;;;;;;;3.38;2.70;;;;;;;9.28;100.00;99919.56;2080378;28;32242;-73
2022/11/04 05:27:52;;;;;;;2.75;2.40;;;;;;;9.29;100.00;99921.28;2081512;28;20046;-72
2022/11/04 05:28:54;;;;;;;2.63;2.42;;;;;;;9.29;100.00;99926.63;2080588;28;31666;-73
2022/11/04 05:29:55;;;;;;;3.92;3.00;;;;;;;9.30;100.00;99925.72;2080537;28;27040;-73
2022/11/04 05:31:02;;;;;;;4.18;2.88;;;;;;;9.29;100.00;99927.50;2083001;28;34037;-73
2022/11/04 05:32:04;;;;;;;4.20;2.95;;;;;;;9.29;100.00;99930.16;2080337;28;38806;-73
2022/11/04 05:33:06;;;;;;;4.22;3.17;;;;;;;9.30;100.00;99933.72;2078815;28;35930;-73
2022/11/04 05:34:12;;;;;;;4.53;3.33;;;;;;;9.31;100.00;99932.78;2071977;28;33378;-73
2022/11/04 05:35:14;;;;;;;4.18;3.17;;;;;;;9.30;100.00;99939.94;2073053;28;20050;-73
2022/11/04 05:36:16;;;;;;;4.32;3.38;;;;;;;9.31;100.00;99932.78;2070428;28;34708;-73
2022/11/04 05:37:18;;;;;;;4.57;3.63;;;;;;;9.32;100.00;99937.22;2079945;28;35134;-73
2022/11/04 05:38:20;;;;;;;5.80;3.20;;;;;;;9.32;100.00;99937.22;2079918;28;20049;-71
2022/11/04 05:39:21;;;;;;;3.35;3.05;;;;;;;9.35;100.00;99947.81;2080150;28;33577;-71
2022/11/04 05:40:23;;;;;;;5.25;3.13;;;;;;;9.33;100.00;99933.59;2080631;28;31733;-71
2022/11/04 05:41:25;;;;;;;3.58;3.28;;;;;;;9.33;100.00;99947.84;2080602;28;33817;-71
2022/11/04 05:42:28;;;;;;;4.03;3.10;;;;;;;9.33;100.00;99949.63;2087949;28;36882;-71
2022/11/04 05:43:33;;;;;;;3.80;3.40;;;;;;;9.31;100.00;99947.03;2087866;28;34345;-71
2022/11/04 05:44:37;;;;;;;3.92;3.15;;;;;;;9.33;100.00;99954.97;2080144;28;34953;-71
2022/11/04 05:45:38;;;;;;;4.50;3.08;;;;;;;9.33;100.00;99952.31;2080469;28;34437;-71
2022/11/04 05:46:43;;;;;;;3.67;3.13;;;;;;;9.35;100.00;99953.16;2080696;28;37094;-73
2022/11/04 05:47:45;;;;;;;4.20;3.17;;;;;;;9.35;100.00;99958.50;2080607;28;31790;-73
2022/11/04 05:48:47;;;;;;;2.85;2.65;;;;;;;9.35;100.00;99955.81;2087706;28;34797;-73
2022/11/04 05:49:48;;;;;;;4.63;2.67;;;;;;;9.35;100.00;99958.50;2087861;28;34617;-73
2022/11/04 05:50:50;;;;;;;2.92;2.67;;;;;;;9.35;100.00;99963.84;2087981;28;34590;-73
2022/11/04 05:51:52;;;;;;;2.72;2.53;;;;;;;9.37;100.00;99961.97;2086831;28;34255;-73
2022/11/04 05:52:57;;;;;;;2.90;2.40;;;;;;;9.36;100.00;99960.22;2063368;28;31736;-73